Time;durP1;ratioP1;P1;durP2;ratioP2;P2;SDS_P1;SDS_P2;PMS_P1;PMS_P2;Temp;Humidity;BMP_temperature;BMP_pressure;BME280_temperature;BME280_humidity;BME280_pressure;Samples;Min_cycle;Max_cycle;Signal;HPM_P1;HPM_P2
2022/10/17 00:00:51;;;;;;;4.55;3.88;;;12.00;99.90;;;-144.05;91.45;125687.94;4978073;28;20058;-84
2022/10/17 00:03:18;;;;;;;4.90;3.80;;;12.00;99.90;;;-144.05;91.63;125687.94;4995621;28;20113;-83
2022/10/17 00:05:48;;;;;;;4.00;3.47;;;12.00;99.90;;;-144.05;91.56;125687.94;4978012;28;20026;-86
2022/10/17 00:08:17;;;;;;;5.30;3.65;;;11.90;99.90;;;-144.05;91.72;125687.94;4978548;28;20034;-85
2022/10/17 00:10:43;;;;;;;4.63;4.15;;;11.90;99.90;;;-144.05;91.71;125687.94;4977180;28;20572;-83
2022/10/17 00:13:11;;;;;;;8.40;5.18;;;12.10;99.90;;;-144.05;91.95;125687.94;4995257;28;20045;-84
2022/10/17 00:15:37;;;;;;;5.40;3.88;;;12.00;99.90;;;-144.05;91.87;125687.94;4995757;28;20096;-83
2022/10/17 00:18:04;;;;;;;8.70;5.30;;;12.00;99.90;;;-144.05;92.09;125687.94;4983966;28;20034;-83
2022/10/17 00:20:31;;;;;;;8.07;5.00;;;12.10;99.90;;;-144.05;91.76;125687.94;4982268;28;20031;-83
2022/10/17 00:22:57;;;;;;;8.63;5.15;;;12.20;99.90;;;-144.05;91.81;125687.94;4984630;28;20053;-81
2022/10/17 00:25:23;;;;;;;7.25;4.80;;;12.20;99.90;;;-144.05;91.57;125687.94;5000343;28;20482;-82
2022/10/17 00:27:49;;;;;;;5.95;3.88;;;12.20;99.90;;;-144.05;91.58;125687.94;4994972;28;20037;-83
2022/10/17 00:30:15;;;;;;;6.93;4.35;;;12.10;99.90;;;-144.05;91.46;125687.94;4994906;28;20494;-85
2022/10/17 00:32:42;;;;;;;4.50;3.50;;;12.10;99.90;;;-144.05;91.66;125687.94;4994899;28;20113;-83
2022/10/17 00:35:09;;;;;;;4.47;3.63;;;12.00;99.90;;;-144.05;91.63;125687.94;4977344;28;20397;-83
2022/10/17 00:37:35;;;;;;;5.53;4.07;;;11.90;99.90;;;-144.05;91.67;125687.94;4995045;28;20058;-85
2022/10/17 00:40:01;;;;;;;8.73;5.53;;;11.90;99.90;;;-144.05;92.05;125687.94;4977171;28;20058;-84
2022/10/17 00:42:27;;;;;;;7.10;5.30;;;12.00;99.90;;;-144.05;91.86;125687.94;4994650;28;20038;-83
2022/10/17 00:45:27;;;;;;;7.28;4.72;;;12.00;99.90;;;-144.05;91.89;125687.94;4977368;28;20486;-85
2022/10/17 00:48:10;;;;;;;6.82;5.18;;;12.00;99.90;;;-144.05;91.65;125687.94;4992328;28;20060;-84
2022/10/17 00:50:40;;;;;;;5.65;4.47;;;12.00;99.90;;;-144.05;91.63;125687.94;4977027;28;20023;-83
2022/10/17 00:53:09;;;;;;;6.10;3.83;;;11.90;99.90;;;-144.05;91.63;125687.94;4993441;28;20038;-82
2022/10/17 00:55:49;;;;;;;4.88;4.32;;;11.80;99.90;;;-144.05;91.86;125687.94;4976777;28;20065;-84
2022/10/17 00:58:16;;;;;;;8.15;5.95;;;11.80;99.90;;;-144.05;92.21;125687.94;4994367;28;20168;-82
2022/10/17 01:00:45;;;;;;;9.43;6.32;;;11.80;99.90;;;-144.05;92.95;125687.94;4994360;28;20026;-83
2022/10/17 01:03:12;;;;;;;8.35;5.70;;;12.00;99.90;;;-144.05;92.48;125687.94;4977097;28;20382;-84
2022/10/17 01:05:40;;;;;;;11.55;7.20;;;12.10;99.90;;;-144.05;93.08;125687.94;4976918;28;20022;-84
2022/10/17 01:08:08;;;;;;;12.65;8.68;;;12.10;99.90;;;-144.05;93.65;125687.94;4993117;28;20026;-83
2022/10/17 01:11:34;;;;;;;17.85;10.52;;;12.30;99.90;;;-144.05;94.80;125687.94;4992888;28;20505;-83
2022/10/17 01:14:27;;;;;;;21.55;13.55;;;12.70;99.90;;;-144.05;95.46;125687.94;4976789;28;20088;-85
2022/10/17 01:17:13;;;;;;;22.27;13.52;;;13.10;99.90;;;-144.05;95.32;125687.94;4994121;28;20033;-83
2022/10/17 01:20:42;;;;;;;20.80;11.77;;;13.40;99.90;;;-144.05;95.67;125687.94;4976587;28;20045;-83
2022/10/17 01:23:52;;;;;;;19.90;11.82;;;13.60;99.90;;;-144.05;95.56;125687.94;4953291;28;20035;-83
2022/10/17 01:26:42;;;;;;;12.00;8.88;;;13.70;99.90;;;-144.05;94.29;125687.94;4977471;28;20094;-83
2022/10/17 01:29:52;;;;;;;10.55;7.43;;;13.70;99.90;;;-144.05;93.65;125687.94;4994395;28;20069;-83
2022/10/17 01:32:38;;;;;;;9.70;5.90;;;13.50;99.90;;;-144.05;93.33;125687.94;4993926;28;20445;-83
2022/10/17 01:35:29;;;;;;;8.45;5.97;;;13.40;99.90;;;-144.05;93.29;125687.94;5016835;23;20472;-78
2022/10/17 01:38:09;;;;;;;9.63;6.30;;;13.20;99.90;;;-144.05;93.38;125687.94;5032397;28;20057;-79
2022/10/17 01:41:33;;;;;;;10.63;6.57;;;13.10;99.90;;;-144.05;93.83;125687.94;5032392;28;20048;-79
2022/10/17 01:44:11;;;;;;;17.67;9.05;;;13.10;99.90;;;-144.05;95.58;125687.94;4976813;28;20090;-77
2022/10/17 01:46:49;;;;;;;18.10;8.65;;;13.20;99.90;;;-144.05;95.26;125687.94;5032192;28;20116;-80
2022/10/17 01:49:27;;;;;;;11.60;7.85;;;13.40;99.90;;;-144.05;94.09;125687.94;5032141;28;20029;-80
2022/10/17 01:52:25;;;;;;;18.23;10.55;;;13.50;99.90;;;-144.05;95.51;125687.94;5032169;28;20508;-79
2022/10/17 01:55:07;;;;;;;19.27;10.80;;;13.70;99.90;;;-144.05;96.36;125687.94;5032154;28;20040;-80
2022/10/17 01:57:53;;;;;;;21.88;13.02;;;14.00;99.90;;;-144.05;97.23;125687.94;5014824;28;20415;-79
2022/10/17 02:00:25;;;;;;;19.60;12.27;;;14.40;99.90;;;-144.05;97.46;125687.94;5032226;28;20108;-80
2022/10/17 02:03:11;;;;;;;17.92;12.68;;;14.70;99.90;;;-144.05;96.75;125687.94;5031992;28;20117;-80
2022/10/17 02:05:42;;;;;;;18.63;10.20;;;14.80;99.90;;;-144.05;95.65;125687.94;5014296;28;20116;-79
2022/10/17 02:08:08;;;;;;;15.32;9.82;;;14.80;99.90;;;-144.05;95.21;125687.94;5032195;28;20029;-80
2022/10/17 02:11:12;;;;;;;15.32;9.73;;;14.60;99.90;;;-144.05;95.21;125687.94;5014017;28;20025;-80
2022/10/17 02:14:26;;;;;;;12.90;8.52;;;14.60;99.90;;;-144.05;95.13;125687.94;5031771;28;20108;-79
2022/10/17 02:17:39;;;;;;;14.77;8.82;;;14.70;99.90;;;-144.05;95.53;125687.94;5031768;28;20029;-79
2022/10/17 02:20:44;;;;;;;16.35;9.43;;;14.70;99.90;;;-144.05;95.04;125687.94;5013896;28;20025;-80
2022/10/17 02:23:26;;;;;;;15.52;8.45;;;14.80;99.90;;;-144.05;94.80;125687.94;5031589;28;20500;-78
2022/10/17 02:26:24;;;;;;;14.10;8.32;;;14.80;99.90;;;-144.05;94.88;125687.94;5031603;28;20029;-79
2022/10/17 02:29:21;;;;;;;12.60;8.40;;;14.90;99.90;;;-144.05;95.07;125687.94;5031702;28;20033;-80
2022/10/17 02:32:34;;;;;;;12.82;7.82;;;15.10;99.90;;;-144.05;94.11;125687.94;5013840;28;20060;-80
2022/10/17 02:35:07;;;;;;;10.60;6.80;;;15.10;99.90;;;-144.05;92.99;125687.94;5031324;28;20083;-79
2022/10/17 02:37:35;;;;;;;9.35;6.50;;;15.20;99.90;;;-144.05;93.47;125687.94;5014156;28;20036;-79
2022/10/17 02:40:06;;;;;;;9.88;6.47;;;15.20;99.90;;;-144.05;92.75;125687.94;5031639;28;20033;-81
2022/10/17 02:42:33;;;;;;;9.20;6.15;;;15.20;99.90;;;-144.05;92.55;125687.94;5013990;28;20497;-80
2022/10/17 02:45:03;;;;;;;9.30;5.57;;;15.30;99.90;;;-144.05;91.62;125687.94;5013704;28;20400;-80
2022/10/17 02:47:46;;;;;;;9.00;5.30;;;15.40;99.90;;;-144.05;91.37;125687.94;5014274;28;20031;-81
2022/10/17 02:50:13;;;;;;;9.73;5.10;;;15.60;99.90;;;-144.05;90.37;125687.94;5031755;28;20029;-80
2022/10/17 02:52:56;;;;;;;10.43;5.63;;;15.60;99.90;;;-144.05;89.92;125687.94;5014049;28;20033;-79
2022/10/17 02:55:35;;;;;;;12.43;4.85;;;15.70;99.90;;;-144.05;89.18;125687.94;5013612;28;20033;-78
2022/10/17 02:58:26;;;;;;;9.10;5.47;;;15.80;99.90;;;-144.05;89.11;125687.94;5013943;28;20034;-79
2022/10/17 03:00:53;;;;;;;8.55;4.57;;;15.80;99.90;;;-144.05;88.43;125687.94;5031557;28;20033;-79
2022/10/17 03:03:28;;;;;;;8.27;5.07;;;15.90;99.90;;;-144.05;88.16;125687.94;5031715;28;20156;-79
2022/10/17 03:05:54;;;;;;;5.07;4.07;;;15.90;99.90;;;-144.05;87.63;125687.94;5031322;28;20159;-79
2022/10/17 03:08:21;;;;;;;8.30;4.53;;;16.00;99.90;;;-144.05;87.69;125687.94;5031561;28;20041;-79
2022/10/17 03:10:47;;;;;;;10.55;5.25;;;16.00;99.90;;;-144.05;87.59;125687.94;5031512;28;20393;-78
2022/10/17 03:13:15;;;;;;;16.95;4.93;;;16.00;99.90;;;-144.05;87.62;125687.94;5031624;28;20034;-78
2022/10/17 03:15:41;;;;;;;8.77;5.18;;;16.00;99.90;;;-144.05;87.26;125687.94;5031165;28;20026;-80
2022/10/17 03:18:08;;;;;;;8.00;5.07;;;16.00;99.90;;;-144.05;87.67;125687.94;5014664;28;20088;-79
2022/10/17 03:20:34;;;;;;;13.05;4.93;;;15.90;99.90;;;-144.05;87.00;125687.94;5035113;28;20036;-79
2022/10/17 03:23:00;;;;;;;10.65;4.88;;;15.90;99.90;;;-144.05;86.85;125687.94;5014920;28;20034;-80
2022/10/17 03:25:27;;;;;;;6.50;4.78;;;16.00;99.90;;;-144.05;86.90;125687.94;5031745;28;20476;-79
2022/10/17 03:27:53;;;;;;;9.02;4.90;;;16.00;99.90;;;-144.05;86.49;125687.94;5032008;28;20072;-79
2022/10/17 03:30:19;;;;;;;10.77;5.00;;;16.00;99.90;;;-144.05;86.59;125687.94;5031725;28;20032;-77
2022/10/17 03:32:45;;;;;;;10.57;4.75;;;16.00;99.90;;;-144.05;86.48;125687.94;5031741;28;20106;-78
2022/10/17 03:35:11;;;;;;;6.90;4.85;;;16.00;99.90;;;-144.05;86.23;125687.94;5031691;28;20033;-78
2022/10/17 03:37:37;;;;;;;9.15;5.53;;;16.00;99.90;;;-144.05;86.40;125687.94;5032088;28;20037;-77
2022/10/17 03:40:03;;;;;;;10.10;4.68;;;16.00;99.90;;;-144.05;86.14;125687.94;5032432;28;20036;-78
2022/10/17 03:42:31;;;;;;;8.02;4.75;;;16.00;99.90;;;-144.05;85.87;125687.94;5032335;28;20112;-78
2022/10/17 03:44:57;;;;;;;5.00;4.28;;;16.00;99.90;;;-144.05;85.79;125687.94;5032120;28;20021;-77
2022/10/17 03:47:22;;;;;;;7.75;4.90;;;16.00;99.90;;;-144.05;86.45;125687.94;5017320;28;20045;-78
2022/10/17 03:49:48;;;;;;;10.93;4.43;;;16.10;99.90;;;-144.05;85.80;125687.94;5017597;28;20026;-78
2022/10/17 03:52:15;;;;;;;6.72;4.50;;;16.10;99.90;;;-144.05;85.77;125687.94;5036228;28;20037;-79
2022/10/17 03:54:40;;;;;;;6.70;4.53;;;16.00;99.90;;;-144.05;85.89;125687.94;5036113;28;20029;-77
2022/10/17 03:57:06;;;;;;;9.13;4.90;;;16.00;99.90;;;-144.05;85.75;125687.94;5018237;28;20048;-78
2022/10/17 03:59:33;;;;;;;8.25;4.85;;;16.00;99.90;;;-144.05;85.72;125687.94;5018353;28;20710;-79
2022/10/17 04:01:59;;;;;;;7.30;4.85;;;16.10;99.90;;;-144.05;85.09;125687.94;5018494;28;20084;-78
2022/10/17 04:04:25;;;;;;;6.15;4.90;;;16.10;99.90;;;-144.05;84.94;125687.94;5018545;28;20025;-79
2022/10/17 04:06:50;;;;;;;8.13;4.68;;;16.10;99.90;;;-144.05;85.06;125687.94;5036502;28;20025;-78
2022/10/17 04:09:16;;;;;;;6.93;4.20;;;16.10;99.90;;;-144.05;84.86;125687.94;5018178;28;20025;-77
2022/10/17 04:11:42;;;;;;;7.45;4.50;;;16.10;99.90;;;-144.05;84.91;125687.94;5036185;28;20432;-77
2022/10/17 04:14:09;;;;;;;7.22;3.95;;;16.10;99.90;;;-144.05;84.81;125687.94;5036130;28;20072;-75
2022/10/17 04:16:35;;;;;;;6.43;4.25;;;16.20;99.90;;;-144.05;84.51;125687.94;5036034;28;20033;-78
2022/10/17 04:19:01;;;;;;;8.10;4.30;;;16.20;99.90;;;-144.05;84.36;125687.94;5036259;28;20072;-78
2022/10/17 04:21:28;;;;;;;8.50;4.32;;;16.10;99.90;;;-144.05;84.63;125687.94;5035852;28;20041;-79
2022/10/17 04:24:00;;;;;;;11.82;5.40;;;16.20;99.90;;;-144.05;84.72;125687.94;5018198;28;20043;-77
2022/10/17 04:26:26;;;;;;;7.55;4.57;;;16.20;99.90;;;-144.05;84.26;125687.94;5018438;28;20476;-78
2022/10/17 04:28:52;;;;;;;6.93;4.50;;;16.20;99.90;;;-144.05;84.65;125687.94;5036402;28;20018;-79
2022/10/17 04:31:18;;;;;;;8.20;5.13;;;16.10;99.90;;;-144.05;84.24;125687.94;5036208;28;20108;-78
2022/10/17 04:33:49;;;;;;;6.90;4.45;;;16.10;99.90;;;-144.05;84.01;125687.94;5020466;28;20057;-78
2022/10/17 04:36:19;;;;;;;7.50;4.45;;;16.10;99.90;;;-144.05;84.46;125687.94;5035894;28;20080;-77
2022/10/17 04:38:45;;;;;;;13.30;5.05;;;16.10;99.90;;;-144.05;84.47;125687.94;5035627;28;20060;-79
2022/10/17 04:41:16;;;;;;;5.50;4.22;;;16.10;99.90;;;-144.05;83.91;125687.94;5036016;28;20029;-77
2022/10/17 04:43:43;;;;;;;8.15;4.70;;;16.10;99.90;;;-144.05;84.18;125687.94;5018147;28;20576;-76
2022/10/17 04:46:14;;;;;;;6.05;4.57;;;16.10;99.90;;;-144.05;84.09;125687.94;5035740;28;20485;-78
2022/10/17 04:48:40;;;;;;;7.20;5.00;;;16.10;99.90;;;-144.05;83.98;125687.94;5016721;28;20071;-76
2022/10/17 04:51:15;;;;;;;9.02;4.55;;;16.10;99.90;;;-144.05;83.79;125687.94;5016950;28;20125;-78
2022/10/17 04:53:43;;;;;;;10.35;4.40;;;16.10;99.90;;;-144.05;84.26;125687.94;5034028;28;20366;-80
2022/10/17 04:56:12;;;;;;;6.97;4.30;;;16.10;99.90;;;-144.05;83.96;125687.94;5034542;28;20120;-77
2022/10/17 04:58:40;;;;;;;7.75;4.43;;;16.10;99.90;;;-144.05;83.82;125687.94;5032937;28;20103;-78
2022/10/17 05:01:13;;;;;;;6.80;4.22;;;16.10;99.90;;;-144.05;84.23;125687.94;5034492;28;20075;-78
2022/10/17 05:03:39;;;;;;;12.77;4.80;;;16.10;99.90;;;-144.05;83.46;125687.94;5034831;28;20500;-80
2022/10/17 05:06:17;;;;;;;7.43;3.97;;;16.20;99.90;;;-144.05;83.42;125687.94;5034361;28;20085;-79
2022/10/17 05:08:44;;;;;;;8.57;4.53;;;16.20;99.90;;;-144.05;83.50;125687.94;5034253;28;20029;-77
2022/10/17 05:11:28;;;;;;;7.05;4.30;;;16.20;99.90;;;-144.05;82.74;125687.94;5033837;28;20053;-77
2022/10/17 05:14:01;;;;;;;6.10;4.40;;;16.20;99.90;;;-144.05;83.17;125687.94;5016057;28;20037;-78
2022/10/17 05:16:29;;;;;;;9.43;4.63;;;16.20;99.90;;;-144.05;83.35;125687.94;5016256;28;20034;-79
2022/10/17 05:18:58;;;;;;;7.53;4.32;;;16.30;99.90;;;-144.05;82.71;125687.94;5033876;28;20037;-79
2022/10/17 05:21:27;;;;;;;10.90;4.00;;;16.40;99.90;;;-144.05;82.29;125687.94;5033610;28;20034;-78
2022/10/17 05:23:53;;;;;;;7.88;4.32;;;16.40;99.90;;;-144.05;81.96;125687.94;5033465;28;20101;-78
2022/10/17 05:26:21;;;;;;;11.82;4.50;;;16.50;99.90;;;-144.05;81.43;125687.94;5033208;28;20554;-78
2022/10/17 05:28:47;;;;;;;7.03;4.78;;;16.40;99.90;;;-144.05;81.56;125687.94;5034611;28;20062;-79
2022/10/17 05:31:14;;;;;;;7.55;4.57;;;16.40;99.90;;;-144.05;81.48;125687.94;5033460;28;20040;-77
2022/10/17 05:33:40;;;;;;;6.13;3.95;;;16.40;99.90;;;-144.05;82.01;125687.94;5032928;28;20392;-78
2022/10/17 05:36:07;;;;;;;6.90;4.07;;;16.40;99.90;;;-144.05;81.33;125687.94;5032669;28;20034;-79
2022/10/17 05:38:34;;;;;;;7.57;4.43;;;16.40;99.90;;;-144.05;81.43;125687.94;5032953;28;20025;-79
2022/10/17 05:41:03;;;;;;;7.25;4.00;;;16.50;99.90;;;-144.05;81.26;125687.94;5033232;28;20113;-78
2022/10/17 05:43:31;;;;;;;7.57;4.20;;;16.50;99.90;;;-144.05;80.79;125687.94;5032976;28;20025;-78
2022/10/17 05:45:57;;;;;;;7.22;3.95;;;16.60;99.90;;;-144.05;80.74;125687.94;5032805;28;20041;-79
2022/10/17 05:48:24;;;;;;;14.10;5.05;;;16.50;99.90;;;-144.05;80.71;125687.94;5032602;28;20476;-78
2022/10/17 05:50:59;;;;;;;6.65;4.30;;;16.50;99.90;;;-144.05;81.11;125687.94;5032736;28;20033;-79
2022/10/17 05:53:29;;;;;;;10.57;4.18;;;16.50;99.90;;;-144.05;80.69;125687.94;5015025;28;20369;-77
2022/10/17 05:56:00;;;;;;;5.78;3.97;;;16.50;99.90;;;-144.05;80.94;125687.94;5035782;28;20037;-79
2022/10/17 05:58:28;;;;;;;7.53;4.70;;;16.60;99.90;;;-144.05;80.64;125687.94;5020259;28;20507;-80
2022/10/17 06:01:04;;;;;;;7.68;4.03;;;16.60;99.90;;;-144.05;80.14;125687.94;5036535;28;20041;-80
2022/10/17 06:03:32;;;;;;;9.95;4.47;;;16.70;99.90;;;-144.05;80.03;125687.94;5033473;28;20030;-78
2022/10/17 06:06:12;;;;;;;8.77;4.03;;;16.70;99.90;;;-144.05;79.36;125687.94;5014849;28;20094;-76
2022/10/17 06:08:38;;;;;;;6.57;3.90;;;16.70;99.90;;;-144.05;79.58;125687.94;5014566;28;20032;-78
2022/10/17 06:11:05;;;;;;;8.00;4.20;;;16.80;99.90;;;-144.05;79.58;125687.94;5032528;28;20047;-81
2022/10/17 06:13:31;;;;;;;8.48;4.05;;;16.90;99.90;;;-144.05;79.30;125687.94;5014537;28;20559;-78
2022/10/17 06:15:57;;;;;;;5.85;4.30;;;16.90;99.90;;;-144.05;79.17;125687.94;5032976;28;20037;-78
2022/10/17 06:18:23;;;;;;;7.75;4.13;;;16.90;99.90;;;-144.05;78.85;125687.94;5032861;28;20101;-76
2022/10/17 06:20:50;;;;;;;9.10;3.67;;;17.00;99.90;;;-144.05;78.13;125687.94;5014886;28;20033;-76
2022/10/17 06:23:15;;;;;;;6.32;3.90;;;17.00;99.90;;;-144.05;77.98;125687.94;5032509;28;20108;-79
2022/10/17 06:25:41;;;;;;;10.05;4.68;;;17.10;99.90;;;-144.05;78.18;125687.94;5031975;28;20499;-78
2022/10/17 06:28:07;;;;;;;6.75;4.07;;;17.00;99.90;;;-144.05;77.60;125687.94;5014211;28;20033;-78
2022/10/17 06:30:33;;;;;;;7.32;4.05;;;17.10;99.90;;;-144.05;77.42;125687.94;5014610;28;20044;-77
2022/10/17 06:33:00;;;;;;;10.38;4.18;;;17.20;99.90;;;-144.05;77.28;125687.94;5032419;28;20457;-79
2022/10/17 06:35:25;;;;;;;5.07;3.72;;;17.20;99.90;;;-144.05;76.77;125687.94;5031886;28;20400;-78
2022/10/17 06:37:51;;;;;;;7.95;3.85;;;17.30;99.90;;;-144.05;76.41;125687.94;5031974;28;20036;-79
2022/10/17 06:40:17;;;;;;;11.05;3.88;;;17.30;99.90;;;-144.05;76.18;125687.94;5032013;28;20032;-78
2022/10/17 06:42:43;;;;;;;5.13;3.78;;;17.40;99.90;;;-144.05;75.67;125687.94;5031708;28;20049;-79
2022/10/17 06:45:10;;;;;;;5.60;3.63;;;17.40;99.90;;;-144.05;75.52;125687.94;5032022;28;20554;-78
2022/10/17 06:47:36;;;;;;;6.60;4.10;;;17.40;99.90;;;-144.05;75.67;125687.94;5032038;28;20018;-78
2022/10/17 06:50:03;;;;;;;5.05;3.58;;;17.40;99.90;;;-144.05;75.91;125687.94;5031552;28;20391;-79
2022/10/17 06:52:28;;;;;;;6.82;3.78;;;17.30;99.90;;;-144.05;76.08;125687.94;5032028;28;20045;-79
2022/10/17 06:54:54;;;;;;;6.88;3.72;;;17.30;99.90;;;-144.05;76.57;125687.94;5031631;28;20404;-78
2022/10/17 06:57:20;;;;;;;8.00;4.05;;;17.20;99.90;;;-144.05;77.00;125687.94;5017496;28;20118;-77
2022/10/17 06:59:47;;;;;;;7.63;4.07;;;17.10;99.90;;;-144.05;77.16;125687.94;5033169;28;20213;-79
2022/10/17 07:02:12;;;;;;;9.00;3.70;;;17.00;99.90;;;-144.05;77.10;125687.94;5014697;28;20036;-78
2022/10/17 07:04:38;;;;;;;7.20;3.75;;;17.10;99.90;;;-144.05;77.10;125687.94;5032144;28;20037;-78
2022/10/17 07:07:04;;;;;;;6.53;3.78;;;17.20;99.90;;;-144.05;76.19;125687.94;5031998;28;20037;-78
2022/10/17 07:09:31;;;;;;;7.57;4.30;;;17.20;99.90;;;-144.05;75.82;125687.94;5013503;28;20032;-78
2022/10/17 07:11:59;;;;;;;11.38;5.03;;;17.40;99.90;;;-144.05;75.98;125687.94;5013763;28;20032;-78
2022/10/17 07:14:30;;;;;;;6.70;4.20;;;17.40;99.90;;;-144.05;75.82;125687.94;5013598;28;20124;-78
2022/10/17 07:16:58;;;;;;;4.82;3.42;;;17.40;99.90;;;-144.05;75.68;125687.94;5015004;28;20122;-80
2022/10/17 07:19:25;;;;;;;7.78;3.72;;;17.50;99.90;;;-144.05;75.36;125687.94;5039731;28;20032;-80
2022/10/17 07:21:52;;;;;;;6.13;3.72;;;17.70;99.90;;;-144.05;74.93;125687.94;5038357;28;20383;-78
2022/10/17 07:24:18;;;;;;;7.47;3.60;;;17.80;99.90;;;-144.05;74.00;125687.94;5039625;28;20036;-79
2022/10/17 07:26:44;;;;;;;8.70;3.78;;;17.90;99.90;;;-144.05;73.85;125687.94;5039041;28;20116;-82
2022/10/17 07:29:10;;;;;;;7.82;3.10;;;18.00;99.90;;;-144.05;73.92;125687.94;5038165;28;20025;-80
2022/10/17 07:31:37;;;;;;;6.43;2.92;;;18.00;99.90;;;-144.05;72.54;125687.94;5038408;28;20083;-79
2022/10/17 07:34:02;;;;;;;8.55;3.75;;;18.10;99.90;;;-144.05;72.19;125687.94;5019691;28;20033;-79
2022/10/17 07:38:56;;;;;;;7.28;3.50;;;18.30;99.90;;;-144.05;72.15;125687.94;4994985;28;20058;-80
2022/10/17 07:41:22;;;;;;;5.85;3.30;;;18.50;99.90;;;-144.05;71.14;125687.94;4996368;28;20057;-81
2022/10/17 07:43:48;;;;;;;5.45;3.30;;;18.60;99.90;;;-144.05;70.47;125687.94;4996523;28;20023;-80
2022/10/17 07:46:14;;;;;;;7.00;3.08;;;18.80;99.90;;;-144.05;70.26;125687.94;4975292;28;20039;-80
2022/10/17 07:48:40;;;;;;;8.48;3.58;;;18.90;99.90;;;-144.05;69.97;125687.94;4976927;28;20501;-79
2022/10/17 07:51:09;;;;;;;8.27;3.13;;;19.00;99.90;;;-144.05;70.02;125687.94;4975660;28;20030;-79
2022/10/17 07:53:38;;;;;;;17.30;3.78;;;19.00;99.90;;;-144.05;69.64;125687.94;4976685;28;20034;-78
2022/10/17 07:56:07;;;;;;;5.97;3.08;;;18.90;99.90;;;-144.05;69.90;125687.94;4976641;28;20081;-80
2022/10/17 07:58:35;;;;;;;6.68;3.85;;;18.90;99.90;;;-144.05;70.05;125687.94;4976656;28;20046;-80
2022/10/17 08:01:09;;;;;;;7.82;3.40;;;18.90;99.90;;;-144.05;69.93;125687.94;4975209;28;20105;-80
2022/10/17 08:03:36;;;;;;;6.47;3.28;;;18.80;99.90;;;-144.05;70.64;125687.94;4975219;28;20037;-80
2022/10/17 08:06:02;;;;;;;4.50;3.38;;;18.70;99.90;;;-144.05;70.23;125687.94;4989803;28;20090;-79
2022/10/17 08:08:29;;;;;;;9.63;3.80;;;18.70;99.90;;;-144.05;70.31;125687.94;4988907;28;20375;-79
2022/10/17 08:11:04;;;;;;;6.90;3.40;;;18.70;99.90;;;-144.05;70.70;125687.94;4992759;28;20034;-81
2022/10/17 08:13:30;;;;;;;6.78;3.60;;;18.60;99.90;;;-144.05;70.64;125687.94;4986967;28;20038;-81
2022/10/17 08:16:08;;;;;;;7.10;3.58;;;18.60;99.90;;;-144.05;71.18;125687.94;4976309;28;20031;-81
2022/10/17 08:18:37;;;;;;;9.38;3.47;;;18.60;99.90;;;-144.05;71.17;125687.94;4977222;28;20066;-81
2022/10/17 08:21:07;;;;;;;5.13;3.28;;;18.70;99.90;;;-144.05;70.78;125687.94;4977849;28;20502;-81
2022/10/17 08:23:35;;;;;;;6.95;3.50;;;18.70;99.90;;;-144.05;70.21;125687.94;4977642;28;20031;-82
2022/10/17 08:26:07;;;;;;;5.20;3.20;;;18.90;99.90;;;-144.05;68.67;125687.94;4977510;28;20027;-80
2022/10/17 08:28:37;;;;;;;4.65;3.10;;;19.10;99.90;;;-144.05;68.45;125687.94;4975561;28;20109;-79
2022/10/17 08:31:14;;;;;;;7.80;3.22;;;19.20;99.90;;;-144.05;67.52;125687.94;4977217;28;20045;-79
2022/10/17 08:33:41;;;;;;;4.82;2.80;;;19.40;99.90;;;-144.05;67.00;125687.94;4976875;28;20475;-80
2022/10/17 08:36:09;;;;;;;5.43;2.88;;;19.60;99.90;;;-144.05;66.38;125687.94;4976760;28;20042;-81
2022/10/17 08:38:36;;;;;;;5.53;3.00;;;19.70;99.90;;;-144.05;65.84;125687.94;4977002;28;20037;-78
2022/10/17 08:41:13;;;;;;;10.60;3.15;;;19.90;99.90;;;-144.05;65.00;125687.94;4975299;28;20406;-78
2022/10/17 08:44:04;;;;;;;5.00;2.72;;;20.00;99.90;;;-144.05;65.24;125687.94;4975250;28;20062;-79
2022/10/17 08:46:38;;;;;;;6.80;2.97;;;20.10;99.90;;;-144.05;63.80;125687.94;4976887;28;20545;-79
2022/10/17 08:49:22;;;;;;;7.70;2.95;;;20.30;99.90;;;-144.05;63.80;125687.94;4975207;28;20490;-80
2022/10/17 08:52:02;;;;;;;5.72;2.80;;;20.30;99.90;;;-144.05;64.74;125687.94;4976472;28;20026;-82
2022/10/17 08:54:44;;;;;;;9.75;2.80;;;20.50;99.90;;;-144.05;62.14;125687.94;4975041;28;20038;-82
2022/10/17 08:57:15;;;;;;;5.75;2.97;;;20.70;99.90;;;-144.05;62.11;125687.94;4976439;28;20049;-79
2022/10/17 08:59:44;;;;;;;8.15;2.92;;;20.90;99.90;;;-144.05;61.70;125687.94;4976188;28;20026;-79
2022/10/17 09:02:45;;;;;;;7.63;2.65;;;21.10;99.90;;;-144.05;60.48;125687.94;4975190;28;20030;-79
2022/10/17 09:06:03;;;;;;;4.18;2.92;;;21.30;99.90;;;-144.05;61.28;125687.94;4976136;28;20031;-80
2022/10/17 09:09:12;;;;;;;5.43;2.72;;;21.30;99.90;;;-144.05;59.52;125687.94;4974852;28;20027;-81
2022/10/17 09:12:09;;;;;;;8.43;2.50;;;21.30;99.90;;;-144.05;59.60;125687.94;4976403;28;20026;-80
2022/10/17 09:15:12;;;;;;;5.25;2.38;;;21.40;99.90;;;-144.05;59.14;125687.94;4976021;28;20033;-79
2022/10/17 09:17:55;;;;;;;7.43;2.92;;;21.50;99.90;;;-144.05;59.09;125687.94;4976365;28;20153;-81
2022/10/17 09:20:38;;;;;;;3.00;2.20;;;21.50;99.90;;;-144.05;58.24;125687.94;4975666;28;20038;-79
2022/10/17 09:23:17;;;;;;;9.38;2.80;;;21.60;99.90;;;-144.05;58.49;125687.94;4976526;28;20033;-78
2022/10/17 09:25:58;;;;;;;6.93;2.63;;;21.80;99.90;;;-144.05;57.15;125687.94;4977652;28;20431;-81
2022/10/17 09:28:36;;;;;;;7.05;3.28;;;21.90;99.90;;;-144.05;56.93;125687.94;4977640;28;20422;-80
2022/10/17 09:31:42;;;;;;;9.98;2.53;;;22.00;99.90;;;-144.05;58.17;125687.94;4977552;28;20514;-78
2022/10/17 09:34:10;;;;;;;10.32;2.65;;;21.90;99.90;;;-144.05;57.89;125687.94;4977229;28;20037;-81
2022/10/17 09:36:39;;;;;;;6.65;2.90;;;21.80;99.90;;;-144.05;57.03;125687.94;4978100;28;20047;-80
2022/10/17 09:39:24;;;;;;;8.65;2.90;;;21.90;99.90;;;-144.05;57.45;125687.94;4977861;28;20125;-79
2022/10/17 09:41:58;;;;;;;5.78;2.53;;;21.90;99.90;;;-144.05;58.77;125687.94;4979345;28;20367;-79
2022/10/17 09:44:39;;;;;;;5.90;2.60;;;21.80;99.90;;;-144.05;57.86;125687.94;4976874;28;20027;-79
2022/10/17 09:47:46;;;;;;;7.15;3.03;;;21.90;99.90;;;-144.05;58.16;125687.94;4979827;28;20031;-79
2022/10/17 09:50:33;;;;;;;5.68;2.35;;;22.10;99.90;;;-144.05;57.50;125687.94;4978288;28;20033;-81
2022/10/17 09:53:13;;;;;;;6.07;2.40;;;22.20;99.90;;;-144.05;56.47;125687.94;4980017;28;20042;-80
2022/10/17 09:55:47;;;;;;;6.85;2.78;;;22.40;99.90;;;-144.05;55.87;125687.94;4979670;28;20026;-80
2022/10/17 09:58:14;;;;;;;3.45;2.00;;;22.50;99.90;;;-144.05;55.32;125687.94;4978675;28;20095;-79
2022/10/17 10:00:46;;;;;;;8.82;2.60;;;22.60;99.90;;;-144.05;55.14;125687.94;4977656;28;20615;-78
2022/10/17 10:03:16;;;;;;;5.18;2.55;;;22.60;99.90;;;-144.05;56.28;125687.94;4978857;28;20045;-81
2022/10/17 10:05:59;;;;;;;8.90;3.25;;;22.40;99.90;;;-144.05;56.97;125687.94;4977432;28;20086;-80
2022/10/17 10:08:52;;;;;;;4.82;2.50;;;22.20;99.90;;;-144.05;58.31;125687.94;4979521;28;20471;-83
2022/10/17 10:11:42;;;;;;;4.63;2.67;;;21.90;99.90;;;-144.05;57.45;125687.94;4978904;28;20023;-82
2022/10/17 10:14:36;;;;;;;4.90;3.00;;;21.70;99.90;;;-144.05;57.64;125687.94;4979926;28;20031;-81
2022/10/17 10:17:24;;;;;;;7.22;2.45;;;21.50;99.90;;;-144.05;58.75;125687.94;4977659;28;20030;-78
2022/10/17 10:19:52;;;;;;;5.38;2.72;;;21.30;99.90;;;-144.05;60.02;125687.94;4975826;28;20445;-79
2022/10/17 10:22:24;;;;;;;5.15;2.50;;;21.10;99.90;;;-144.05;60.28;125687.94;4977688;28;20046;-79
2022/10/17 10:25:16;;;;;;;4.43;2.63;;;21.00;99.90;;;-144.05;60.35;125687.94;4977813;28;20482;-80
2022/10/17 10:27:45;;;;;;;4.80;2.47;;;21.00;99.90;;;-144.05;61.03;125687.94;4977717;28;20066;-83